sensor_id;sensor_type;location;lat;lon;timestamp;temperature;humidity
76567;DHT22;65428;53.194;6.132;2023-04-24T00:01:33;11.70;99.90
76567;DHT22;65428;53.194;6.132;2023-04-24T00:04:01;11.40;99.90
76567;DHT22;65428;53.194;6.132;2023-04-24T00:06:29;11.50;99.90
76567;DHT22;65428;53.194;6.132;2023-04-24T00:09:03;11.50;99.90
76567;DHT22;65428;53.194;6.132;2023-04-24T00:11:29;11.50;99.90
76567;DHT22;65428;53.194;6.132;2023-04-24T00:13:56;11.80;99.90
76567;DHT22;65428;53.194;6.132;2023-04-24T00:16:22;11.50;99.90
76567;DHT22;65428;53.194;6.132;2023-04-24T00:18:47;11.80;99.90
76567;DHT22;65428;53.194;6.132;2023-04-24T00:21:14;11.80;99.90
76567;DHT22;65428;53.194;6.132;2023-04-24T00:23:41;11.60;99.90
76567;DHT22;65428;53.194;6.132;2023-04-24T00:26:07;12.00;99.90
76567;DHT22;65428;53.194;6.132;2023-04-24T00:28:33;11.70;99.90
76567;DHT22;65428;53.194;6.132;2023-04-24T00:30:59;11.60;99.90
76567;DHT22;65428;53.194;6.132;2023-04-24T00:33:24;11.70;99.90
76567;DHT22;65428;53.194;6.132;2023-04-24T00:35:50;11.60;99.90
76567;DHT22;65428;53.194;6.132;2023-04-24T00:38:15;11.50;99.90
76567;DHT22;65428;53.194;6.132;2023-04-24T00:40:41;11.60;99.90
76567;DHT22;65428;53.194;6.132;2023-04-24T00:43:07;11.50;99.90
76567;DHT22;65428;53.194;6.132;2023-04-24T00:45:33;11.70;99.90
76567;DHT22;65428;53.194;6.132;2023-04-24T00:48:00;11.20;99.90
76567;DHT22;65428;53.194;6.132;2023-04-24T00:50:26;11.90;99.90
76567;DHT22;65428;53.194;6.132;2023-04-24T00:52:52;11.40;99.90
76567;DHT22;65428;53.194;6.132;2023-04-24T00:55:18;11.20;99.90
76567;DHT22;65428;53.194;6.132;2023-04-24T00:57:44;11.30;99.90
76567;DHT22;65428;53.194;6.132;2023-04-24T01:00:10;10.90;99.90
76567;DHT22;65428;53.194;6.132;2023-04-24T01:02:43;11.30;99.90
76567;DHT22;65428;53.194;6.132;2023-04-24T01:05:13;11.60;99.90
76567;DHT22;65428;53.194;6.132;2023-04-24T01:07:41;11.20;99.90
76567;DHT22;65428;53.194;6.132;2023-04-24T01:10:11;11.50;99.90
76567;DHT22;65428;53.194;6.132;2023-04-24T01:12:38;11.20;99.90
76567;DHT22;65428;53.194;6.132;2023-04-24T01:15:04;11.30;99.90
76567;DHT22;65428;53.194;6.132;2023-04-24T01:17:32;11.10;99.90
76567;DHT22;65428;53.194;6.132;2023-04-24T01:19:58;11.30;99.90
76567;DHT22;65428;53.194;6.132;2023-04-24T01:22:26;11.10;99.90
76567;DHT22;65428;53.194;6.132;2023-04-24T01:24:53;11.10;99.90
76567;DHT22;65428;53.194;6.132;2023-04-24T01:27:19;11.00;99.90
76567;DHT22;65428;53.194;6.132;2023-04-24T01:29:45;11.10;99.90
76567;DHT22;65428;53.194;6.132;2023-04-24T01:32:11;11.10;99.90
76567;DHT22;65428;53.194;6.132;2023-04-24T01:34:37;11.00;99.90
76567;DHT22;65428;53.194;6.132;2023-04-24T01:37:03;11.10;99.90
76567;DHT22;65428;53.194;6.132;2023-04-24T01:39:30;11.40;99.90
76567;DHT22;65428;53.194;6.132;2023-04-24T01:41:56;11.10;99.90
76567;DHT22;65428;53.194;6.132;2023-04-24T01:44:23;10.90;99.90
76567;DHT22;65428;53.194;6.132;2023-04-24T01:46:48;11.20;99.90
76567;DHT22;65428;53.194;6.132;2023-04-24T01:49:14;11.20;99.90
76567;DHT22;65428;53.194;6.132;2023-04-24T01:51:41;11.20;99.90
76567;DHT22;65428;53.194;6.132;2023-04-24T01:54:06;11.10;99.90
76567;DHT22;65428;53.194;6.132;2023-04-24T01:56:33;11.30;99.90
76567;DHT22;65428;53.194;6.132;2023-04-24T01:59:03;11.00;99.90
76567;DHT22;65428;53.194;6.132;2023-04-24T02:01:34;11.00;99.90
76567;DHT22;65428;53.194;6.132;2023-04-24T02:04:01;11.20;99.90
76567;DHT22;65428;53.194;6.132;2023-04-24T02:06:27;11.00;99.90
76567;DHT22;65428;53.194;6.132;2023-04-24T02:08:53;11.10;99.90
76567;DHT22;65428;53.194;6.132;2023-04-24T02:11:19;11.20;99.90
76567;DHT22;65428;53.194;6.132;2023-04-24T02:13:44;11.10;99.90
76567;DHT22;65428;53.194;6.132;2023-04-24T02:16:10;11.10;99.90
76567;DHT22;65428;53.194;6.132;2023-04-24T02:18:36;10.90;99.90
76567;DHT22;65428;53.194;6.132;2023-04-24T02:21:03;10.90;99.90
76567;DHT22;65428;53.194;6.132;2023-04-24T02:23:28;11.00;99.90
76567;DHT22;65428;53.194;6.132;2023-04-24T02:25:54;11.10;99.90
76567;DHT22;65428;53.194;6.132;2023-04-24T02:28:21;11.00;99.90
76567;DHT22;65428;53.194;6.132;2023-04-24T02:30:46;11.10;99.90
76567;DHT22;65428;53.194;6.132;2023-04-24T02:33:12;10.90;99.90
76567;DHT22;65428;53.194;6.132;2023-04-24T02:35:38;11.10;99.90
76567;DHT22;65428;53.194;6.132;2023-04-24T02:38:03;11.20;99.90
76567;DHT22;65428;53.194;6.132;2023-04-24T02:40:29;10.90;99.90
76567;DHT22;65428;53.194;6.132;2023-04-24T02:42:55;11.00;99.90
76567;DHT22;65428;53.194;6.132;2023-04-24T02:45:21;10.80;99.90
76567;DHT22;65428;53.194;6.132;2023-04-24T02:47:47;11.10;99.90
76567;DHT22;65428;53.194;6.132;2023-04-24T02:50:12;10.90;99.90
76567;DHT22;65428;53.194;6.132;2023-04-24T02:52:41;11.00;99.90
76567;DHT22;65428;53.194;6.132;2023-04-24T02:55:07;11.10;99.90
76567;DHT22;65428;53.194;6.132;2023-04-24T02:57:33;10.90;99.90
76567;DHT22;65428;53.194;6.132;2023-04-24T02:59:59;11.20;99.90
76567;DHT22;65428;53.194;6.132;2023-04-24T03:02:25;11.00;99.90
76567;DHT22;65428;53.194;6.132;2023-04-24T03:04:51;11.30;99.90
76567;DHT22;65428;53.194;6.132;2023-04-24T03:07:17;11.10;99.90
76567;DHT22;65428;53.194;6.132;2023-04-24T03:09:46;11.00;99.90
76567;DHT22;65428;53.194;6.132;2023-04-24T03:12:12;11.30;99.90
76567;DHT22;65428;53.194;6.132;2023-04-24T03:14:38;11.10;99.90
76567;DHT22;65428;53.194;6.132;2023-04-24T03:17:04;11.20;99.90
76567;DHT22;65428;53.194;6.132;2023-04-24T03:19:30;11.10;99.90
76567;DHT22;65428;53.194;6.132;2023-04-24T03:21:55;11.20;99.90
76567;DHT22;65428;53.194;6.132;2023-04-24T03:24:21;11.20;99.90
76567;DHT22;65428;53.194;6.132;2023-04-24T03:26:47;11.20;99.90
76567;DHT22;65428;53.194;6.132;2023-04-24T03:29:13;11.00;99.90
76567;DHT22;65428;53.194;6.132;2023-04-24T03:31:39;11.10;99.90
76567;DHT22;65428;53.194;6.132;2023-04-24T03:34:04;11.20;99.90
76567;DHT22;65428;53.194;6.132;2023-04-24T03:36:30;11.00;99.90
76567;DHT22;65428;53.194;6.132;2023-04-24T03:38:56;11.00;99.90
76567;DHT22;65428;53.194;6.132;2023-04-24T03:41:22;11.00;99.90
76567;DHT22;65428;53.194;6.132;2023-04-24T03:43:48;11.20;99.90
76567;DHT22;65428;53.194;6.132;2023-04-24T03:46:14;11.10;99.90
76567;DHT22;65428;53.194;6.132;2023-04-24T03:48:40;10.90;99.90
76567;DHT22;65428;53.194;6.132;2023-04-24T03:51:06;10.80;99.90
76567;DHT22;65428;53.194;6.132;2023-04-24T03:53:31;10.90;99.90
76567;DHT22;65428;53.194;6.132;2023-04-24T03:55:57;10.60;99.90
76567;DHT22;65428;53.194;6.132;2023-04-24T03:58:23;10.60;99.90
76567;DHT22;65428;53.194;6.132;2023-04-24T04:00:49;10.60;99.90
76567;DHT22;65428;53.194;6.132;2023-04-24T04:03:15;10.50;99.90
76567;DHT22;65428;53.194;6.132;2023-04-24T04:05:41;10.60;99.90
76567;DHT22;65428;53.194;6.132;2023-04-24T04:08:06;10.40;99.90
76567;DHT22;65428;53.194;6.132;2023-04-24T04:10:32;10.60;99.90
76567;DHT22;65428;53.194;6.132;2023-04-24T04:12:58;10.40;99.90
76567;DHT22;65428;53.194;6.132;2023-04-24T04:15:23;10.50;99.90
76567;DHT22;65428;53.194;6.132;2023-04-24T04:17:49;10.20;99.90
76567;DHT22;65428;53.194;6.132;2023-04-24T04:20:15;10.40;99.90
76567;DHT22;65428;53.194;6.132;2023-04-24T04:22:40;10.40;99.90
76567;DHT22;65428;53.194;6.132;2023-04-24T04:25:06;10.60;99.90
76567;DHT22;65428;53.194;6.132;2023-04-24T04:27:34;10.30;99.90
76567;DHT22;65428;53.194;6.132;2023-04-24T04:30:04;10.50;99.90
76567;DHT22;65428;53.194;6.132;2023-04-24T04:32:32;10.30;99.90
76567;DHT22;65428;53.194;6.132;2023-04-24T04:34:59;10.30;99.90
76567;DHT22;65428;53.194;6.132;2023-04-24T04:37:37;10.40;99.90
76567;DHT22;65428;53.194;6.132;2023-04-24T04:40:04;10.20;99.90
76567;DHT22;65428;53.194;6.132;2023-04-24T04:42:32;10.30;99.90
76567;DHT22;65428;53.194;6.132;2023-04-24T04:44:59;10.30;99.90
76567;DHT22;65428;53.194;6.132;2023-04-24T04:47:26;10.40;99.90
76567;DHT22;65428;53.194;6.132;2023-04-24T04:49:52;10.30;99.90
76567;DHT22;65428;53.194;6.132;2023-04-24T04:52:18;10.50;99.90
76567;DHT22;65428;53.194;6.132;2023-04-24T04:54:44;9.90;99.90
76567;DHT22;65428;53.194;6.132;2023-04-24T04:57:10;9.90;99.90
76567;DHT22;65428;53.194;6.132;2023-04-24T04:59:36;10.30;99.90
76567;DHT22;65428;53.194;6.132;2023-04-24T05:02:02;10.40;99.90
76567;DHT22;65428;53.194;6.132;2023-04-24T05:04:28;10.10;99.90
76567;DHT22;65428;53.194;6.132;2023-04-24T05:06:54;10.20;99.90
76567;DHT22;65428;53.194;6.132;2023-04-24T05:09:19;10.30;99.90
76567;DHT22;65428;53.194;6.132;2023-04-24T05:11:45;10.20;99.90
76567;DHT22;65428;53.194;6.132;2023-04-24T05:14:11;9.90;99.90
76567;DHT22;65428;53.194;6.132;2023-04-24T05:16:38;10.20;99.90
76567;DHT22;65428;53.194;6.132;2023-04-24T05:19:04;10.00;99.90
76567;DHT22;65428;53.194;6.132;2023-04-24T05:21:30;10.00;99.90
76567;DHT22;65428;53.194;6.132;2023-04-24T05:23:56;9.90;99.90
76567;DHT22;65428;53.194;6.132;2023-04-24T05:26:22;10.00;99.90
76567;DHT22;65428;53.194;6.132;2023-04-24T05:28:48;9.90;99.90
76567;DHT22;65428;53.194;6.132;2023-04-24T05:31:14;10.10;99.90
76567;DHT22;65428;53.194;6.132;2023-04-24T05:33:39;9.90;99.90
76567;DHT22;65428;53.194;6.132;2023-04-24T05:36:06;9.90;99.90
76567;DHT22;65428;53.194;6.132;2023-04-24T05:38:32;9.90;99.90
76567;DHT22;65428;53.194;6.132;2023-04-24T05:40:57;10.00;99.90
76567;DHT22;65428;53.194;6.132;2023-04-24T05:43:23;10.00;99.90
76567;DHT22;65428;53.194;6.132;2023-04-24T05:45:49;10.10;99.90
76567;DHT22;65428;53.194;6.132;2023-04-24T05:48:15;10.00;99.90
76567;DHT22;65428;53.194;6.132;2023-04-24T05:50:41;10.10;99.90
76567;DHT22;65428;53.194;6.132;2023-04-24T05:53:06;10.20;99.90
76567;DHT22;65428;53.194;6.132;2023-04-24T05:55:32;10.20;99.90
76567;DHT22;65428;53.194;6.132;2023-04-24T05:57:59;10.30;99.90
76567;DHT22;65428;53.194;6.132;2023-04-24T06:00:25;10.20;99.90
76567;DHT22;65428;53.194;6.132;2023-04-24T06:02:51;10.10;99.90
76567;DHT22;65428;53.194;6.132;2023-04-24T06:05:18;10.10;99.90
76567;DHT22;65428;53.194;6.132;2023-04-24T06:07:44;10.00;99.90
76567;DHT22;65428;53.194;6.132;2023-04-24T06:10:10;10.20;99.90
76567;DHT22;65428;53.194;6.132;2023-04-24T06:12:36;10.00;99.90
76567;DHT22;65428;53.194;6.132;2023-04-24T06:15:03;10.00;99.90
76567;DHT22;65428;53.194;6.132;2023-04-24T06:17:29;9.90;99.90
76567;DHT22;65428;53.194;6.132;2023-04-24T06:19:55;10.00;99.90
76567;DHT22;65428;53.194;6.132;2023-04-24T06:22:21;9.70;99.90
76567;DHT22;65428;53.194;6.132;2023-04-24T06:24:47;9.90;99.90
76567;DHT22;65428;53.194;6.132;2023-04-24T06:27:13;9.80;99.90
76567;DHT22;65428;53.194;6.132;2023-04-24T06:29:39;10.00;99.90
76567;DHT22;65428;53.194;6.132;2023-04-24T06:32:05;9.60;99.90
76567;DHT22;65428;53.194;6.132;2023-04-24T06:34:31;9.70;99.90
76567;DHT22;65428;53.194;6.132;2023-04-24T06:36:58;9.90;99.90
76567;DHT22;65428;53.194;6.132;2023-04-24T06:39:23;9.70;99.90
76567;DHT22;65428;53.194;6.132;2023-04-24T06:41:49;9.90;99.90
76567;DHT22;65428;53.194;6.132;2023-04-24T06:44:15;9.90;99.90
76567;DHT22;65428;53.194;6.132;2023-04-24T06:46:41;9.80;99.90
76567;DHT22;65428;53.194;6.132;2023-04-24T06:49:07;9.80;99.90
76567;DHT22;65428;53.194;6.132;2023-04-24T06:51:32;9.70;99.90
76567;DHT22;65428;53.194;6.132;2023-04-24T06:53:58;9.80;99.90
76567;DHT22;65428;53.194;6.132;2023-04-24T06:56:25;9.90;99.90
76567;DHT22;65428;53.194;6.132;2023-04-24T06:58:51;9.70;99.90
76567;DHT22;65428;53.194;6.132;2023-04-24T07:01:17;9.80;99.90
76567;DHT22;65428;53.194;6.132;2023-04-24T07:03:42;9.90;99.90
76567;DHT22;65428;53.194;6.132;2023-04-24T07:06:09;9.70;99.90
76567;DHT22;65428;53.194;6.132;2023-04-24T07:08:38;9.90;99.90
76567;DHT22;65428;53.194;6.132;2023-04-24T07:11:04;9.70;99.90
76567;DHT22;65428;53.194;6.132;2023-04-24T07:13:29;9.70;99.90
76567;DHT22;65428;53.194;6.132;2023-04-24T07:15:55;9.70;99.90
76567;DHT22;65428;53.194;6.132;2023-04-24T07:18:22;9.70;99.90
76567;DHT22;65428;53.194;6.132;2023-04-24T07:20:47;9.70;99.90
76567;DHT22;65428;53.194;6.132;2023-04-24T07:23:15;9.70;99.90
76567;DHT22;65428;53.194;6.132;2023-04-24T07:25:41;9.80;99.90
76567;DHT22;65428;53.194;6.132;2023-04-24T07:28:07;9.50;99.90
76567;DHT22;65428;53.194;6.132;2023-04-24T07:30:33;9.70;99.90
76567;DHT22;65428;53.194;6.132;2023-04-24T07:32:59;9.40;99.90
76567;DHT22;65428;53.194;6.132;2023-04-24T07:35:26;9.50;99.90
76567;DHT22;65428;53.194;6.132;2023-04-24T07:37:55;9.40;99.90
76567;DHT22;65428;53.194;6.132;2023-04-24T07:40:21;9.50;99.90
76567;DHT22;65428;53.194;6.132;2023-04-24T07:42:47;9.50;99.90
76567;DHT22;65428;53.194;6.132;2023-04-24T07:45:14;9.40;99.90
76567;DHT22;65428;53.194;6.132;2023-04-24T07:47:43;9.40;99.90
76567;DHT22;65428;53.194;6.132;2023-04-24T07:50:11;9.40;99.90
76567;DHT22;65428;53.194;6.132;2023-04-24T07:52:37;9.40;99.90
76567;DHT22;65428;53.194;6.132;2023-04-24T07:55:02;9.50;99.90
76567;DHT22;65428;53.194;6.132;2023-04-24T07:57:28;9.70;99.90
76567;DHT22;65428;53.194;6.132;2023-04-24T07:59:54;9.90;99.90
76567;DHT22;65428;53.194;6.132;2023-04-24T08:02:20;9.50;99.90
76567;DHT22;65428;53.194;6.132;2023-04-24T08:04:52;9.60;99.90
76567;DHT22;65428;53.194;6.132;2023-04-24T08:07:19;9.50;99.90
76567;DHT22;65428;53.194;6.132;2023-04-24T08:09:45;9.50;99.90
76567;DHT22;65428;53.194;6.132;2023-04-24T08:12:11;9.40;99.90
76567;DHT22;65428;53.194;6.132;2023-04-24T08:14:36;9.40;99.90
76567;DHT22;65428;53.194;6.132;2023-04-24T08:17:02;9.40;99.90
76567;DHT22;65428;53.194;6.132;2023-04-24T08:19:29;9.40;99.90
76567;DHT22;65428;53.194;6.132;2023-04-24T08:21:54;9.40;99.90
76567;DHT22;65428;53.194;6.132;2023-04-24T08:24:20;9.70;99.90
76567;DHT22;65428;53.194;6.132;2023-04-24T08:26:46;9.40;99.90
76567;DHT22;65428;53.194;6.132;2023-04-24T08:29:15;9.70;99.90
76567;DHT22;65428;53.194;6.132;2023-04-24T08:31:41;9.70;99.90
76567;DHT22;65428;53.194;6.132;2023-04-24T08:34:07;9.60;99.90
76567;DHT22;65428;53.194;6.132;2023-04-24T08:36:33;9.60;99.90
76567;DHT22;65428;53.194;6.132;2023-04-24T08:38:59;9.80;99.90
76567;DHT22;65428;53.194;6.132;2023-04-24T08:41:24;9.80;99.90
76567;DHT22;65428;53.194;6.132;2023-04-24T08:43:52;10.00;99.90
76567;DHT22;65428;53.194;6.132;2023-04-24T08:46:19;9.90;99.90
76567;DHT22;65428;53.194;6.132;2023-04-24T08:48:45;10.10;99.90
76567;DHT22;65428;53.194;6.132;2023-04-24T08:51:11;10.50;99.90
76567;DHT22;65428;53.194;6.132;2023-04-24T08:53:37;10.20;99.90
76567;DHT22;65428;53.194;6.132;2023-04-24T08:56:03;10.20;99.90
76567;DHT22;65428;53.194;6.132;2023-04-24T08:58:31;10.20;99.90
76567;DHT22;65428;53.194;6.132;2023-04-24T09:00:58;10.10;99.90
76567;DHT22;65428;53.194;6.132;2023-04-24T09:03:24;10.00;99.90
76567;DHT22;65428;53.194;6.132;2023-04-24T09:05:54;10.20;99.90
76567;DHT22;65428;53.194;6.132;2023-04-24T09:08:24;9.90;99.90
76567;DHT22;65428;53.194;6.132;2023-04-24T09:10:50;10.00;99.90
76567;DHT22;65428;53.194;6.132;2023-04-24T09:13:16;9.90;99.90
76567;DHT22;65428;53.194;6.132;2023-04-24T09:15:43;10.10;99.90
76567;DHT22;65428;53.194;6.132;2023-04-24T09:18:08;10.00;99.90
76567;DHT22;65428;53.194;6.132;2023-04-24T09:20:34;10.10;99.90
76567;DHT22;65428;53.194;6.132;2023-04-24T09:23:01;10.10;99.90
76567;DHT22;65428;53.194;6.132;2023-04-24T09:25:34;10.20;99.90
76567;DHT22;65428;53.194;6.132;2023-04-24T09:28:04;10.20;99.90
76567;DHT22;65428;53.194;6.132;2023-04-24T09:30:31;10.40;99.90
76567;DHT22;65428;53.194;6.132;2023-04-24T09:33:26;10.50;99.90
76567;DHT22;65428;53.194;6.132;2023-04-24T09:35:52;10.70;99.90
76567;DHT22;65428;53.194;6.132;2023-04-24T09:38:18;10.80;99.90
76567;DHT22;65428;53.194;6.132;2023-04-24T09:40:43;10.90;99.90
76567;DHT22;65428;53.194;6.132;2023-04-24T09:43:12;10.90;99.90
76567;DHT22;65428;53.194;6.132;2023-04-24T09:45:39;10.90;99.90
76567;DHT22;65428;53.194;6.132;2023-04-24T09:48:05;11.00;99.90
76567;DHT22;65428;53.194;6.132;2023-04-24T09:50:34;11.00;99.90
76567;DHT22;65428;53.194;6.132;2023-04-24T09:53:05;11.00;99.90
76567;DHT22;65428;53.194;6.132;2023-04-24T09:55:31;11.00;99.90
76567;DHT22;65428;53.194;6.132;2023-04-24T09:58:01;11.10;99.90
76567;DHT22;65428;53.194;6.132;2023-04-24T10:00:27;11.40;99.90
76567;DHT22;65428;53.194;6.132;2023-04-24T10:02:58;11.50;99.90
76567;DHT22;65428;53.194;6.132;2023-04-24T10:05:33;11.40;99.90
76567;DHT22;65428;53.194;6.132;2023-04-24T10:08:08;11.40;99.90
76567;DHT22;65428;53.194;6.132;2023-04-24T10:10:37;11.40;99.90
76567;DHT22;65428;53.194;6.132;2023-04-24T10:13:04;11.30;99.90
76567;DHT22;65428;53.194;6.132;2023-04-24T10:15:30;11.20;99.90
76567;DHT22;65428;53.194;6.132;2023-04-24T10:17:58;11.20;99.90
76567;DHT22;65428;53.194;6.132;2023-04-24T10:20:26;11.20;99.90
76567;DHT22;65428;53.194;6.132;2023-04-24T10:22:53;11.20;99.90
76567;DHT22;65428;53.194;6.132;2023-04-24T10:25:21;11.10;99.90
76567;DHT22;65428;53.194;6.132;2023-04-24T10:27:48;11.00;99.90
76567;DHT22;65428;53.194;6.132;2023-04-24T10:30:14;10.90;99.90
76567;DHT22;65428;53.194;6.132;2023-04-24T10:32:40;10.80;99.90
76567;DHT22;65428;53.194;6.132;2023-04-24T10:35:07;10.70;99.90
76567;DHT22;65428;53.194;6.132;2023-04-24T10:37:42;10.70;99.90
76567;DHT22;65428;53.194;6.132;2023-04-24T10:40:09;10.70;99.90
76567;DHT22;65428;53.194;6.132;2023-04-24T10:42:40;10.70;99.90
76567;DHT22;65428;53.194;6.132;2023-04-24T10:45:07;10.60;99.90
76567;DHT22;65428;53.194;6.132;2023-04-24T10:47:41;10.50;99.90
76567;DHT22;65428;53.194;6.132;2023-04-24T10:50:10;10.50;99.90
76567;DHT22;65428;53.194;6.132;2023-04-24T10:52:49;10.50;99.90
76567;DHT22;65428;53.194;6.132;2023-04-24T10:55:39;10.50;99.90
76567;DHT22;65428;53.194;6.132;2023-04-24T10:58:05;10.50;99.90
76567;DHT22;65428;53.194;6.132;2023-04-24T11:00:30;10.70;99.90
76567;DHT22;65428;53.194;6.132;2023-04-24T11:02:57;10.50;99.90
76567;DHT22;65428;53.194;6.132;2023-04-24T11:08:16;10.70;99.90
76567;DHT22;65428;53.194;6.132;2023-04-24T11:10:54;10.80;99.90
76567;DHT22;65428;53.194;6.132;2023-04-24T11:13:27;10.80;99.90
76567;DHT22;65428;53.194;6.132;2023-04-24T11:21:31;10.60;99.90
76567;DHT22;65428;53.194;6.132;2023-04-24T11:23:57;10.40;99.90
76567;DHT22;65428;53.194;6.132;2023-04-24T11:26:23;10.40;99.90
76567;DHT22;65428;53.194;6.132;2023-04-24T11:29:07;10.00;99.90
76567;DHT22;65428;53.194;6.132;2023-04-24T11:31:44;10.00;99.90
76567;DHT22;65428;53.194;6.132;2023-04-24T11:34:16;9.80;99.90
76567;DHT22;65428;53.194;6.132;2023-04-24T11:36:48;9.70;99.90
76567;DHT22;65428;53.194;6.132;2023-04-24T11:39:14;9.70;99.90
76567;DHT22;65428;53.194;6.132;2023-04-24T11:41:40;9.70;99.90
76567;DHT22;65428;53.194;6.132;2023-04-24T11:44:08;9.80;99.90
76567;DHT22;65428;53.194;6.132;2023-04-24T11:46:34;10.00;99.90
76567;DHT22;65428;53.194;6.132;2023-04-24T11:48:59;10.20;99.90
76567;DHT22;65428;53.194;6.132;2023-04-24T11:51:27;10.60;99.90
76567;DHT22;65428;53.194;6.132;2023-04-24T11:53:54;10.70;99.90
76567;DHT22;65428;53.194;6.132;2023-04-24T11:56:24;10.70;99.90
76567;DHT22;65428;53.194;6.132;2023-04-24T11:58:52;11.30;99.90
76567;DHT22;65428;53.194;6.132;2023-04-24T12:01:19;11.40;99.90
76567;DHT22;65428;53.194;6.132;2023-04-24T12:03:49;11.40;99.90
76567;DHT22;65428;53.194;6.132;2023-04-24T12:06:16;11.40;99.90
76567;DHT22;65428;53.194;6.132;2023-04-24T12:08:42;11.40;99.90
76567;DHT22;65428;53.194;6.132;2023-04-24T12:11:10;11.30;99.90
76567;DHT22;65428;53.194;6.132;2023-04-24T12:13:37;11.20;99.90
76567;DHT22;65428;53.194;6.132;2023-04-24T12:16:03;11.10;99.90
76567;DHT22;65428;53.194;6.132;2023-04-24T12:18:30;11.10;99.90
76567;DHT22;65428;53.194;6.132;2023-04-24T12:21:14;11.00;99.90
76567;DHT22;65428;53.194;6.132;2023-04-24T12:23:43;11.20;99.90
76567;DHT22;65428;53.194;6.132;2023-04-24T12:26:08;11.50;99.90
76567;DHT22;65428;53.194;6.132;2023-04-24T12:28:36;11.50;99.90
76567;DHT22;65428;53.194;6.132;2023-04-24T12:31:02;11.50;99.90
76567;DHT22;65428;53.194;6.132;2023-04-24T12:33:27;11.40;99.90
76567;DHT22;65428;53.194;6.132;2023-04-24T12:35:57;11.20;99.90
76567;DHT22;65428;53.194;6.132;2023-04-24T12:38:25;11.10;99.90
76567;DHT22;65428;53.194;6.132;2023-04-24T12:41:06;11.10;99.90
76567;DHT22;65428;53.194;6.132;2023-04-24T12:43:32;11.20;99.90
76567;DHT22;65428;53.194;6.132;2023-04-24T12:45:57;11.40;99.90
76567;DHT22;65428;53.194;6.132;2023-04-24T12:48:25;11.50;99.90
76567;DHT22;65428;53.194;6.132;2023-04-24T12:50:51;11.60;99.90
76567;DHT22;65428;53.194;6.132;2023-04-24T12:53:16;11.60;99.90
76567;DHT22;65428;53.194;6.132;2023-04-24T12:55:43;11.70;99.90
76567;DHT22;65428;53.194;6.132;2023-04-24T12:58:09;11.70;99.90
76567;DHT22;65428;53.194;6.132;2023-04-24T13:00:35;11.90;99.90
76567;DHT22;65428;53.194;6.132;2023-04-24T13:03:02;11.70;99.90
76567;DHT22;65428;53.194;6.132;2023-04-24T13:05:28;11.60;99.90
76567;DHT22;65428;53.194;6.132;2023-04-24T13:07:53;11.60;99.90
76567;DHT22;65428;53.194;6.132;2023-04-24T13:10:19;11.90;99.90
76567;DHT22;65428;53.194;6.132;2023-04-24T13:12:45;11.70;99.90
76567;DHT22;65428;53.194;6.132;2023-04-24T13:15:11;11.70;99.90
76567;DHT22;65428;53.194;6.132;2023-04-24T13:17:37;11.50;99.90
76567;DHT22;65428;53.194;6.132;2023-04-24T13:20:03;11.40;99.90
76567;DHT22;65428;53.194;6.132;2023-04-24T13:22:29;11.20;99.90
76567;DHT22;65428;53.194;6.132;2023-04-24T13:24:55;11.10;99.90
76567;DHT22;65428;53.194;6.132;2023-04-24T13:27:21;10.90;99.90
76567;DHT22;65428;53.194;6.132;2023-04-24T13:29:47;10.70;99.90
76567;DHT22;65428;53.194;6.132;2023-04-24T13:32:13;10.80;99.90
76567;DHT22;65428;53.194;6.132;2023-04-24T13:34:38;10.80;99.90
76567;DHT22;65428;53.194;6.132;2023-04-24T13:37:05;10.60;99.90
76567;DHT22;65428;53.194;6.132;2023-04-24T13:39:31;10.30;99.90
76567;DHT22;65428;53.194;6.132;2023-04-24T13:41:57;10.10;99.90
76567;DHT22;65428;53.194;6.132;2023-04-24T13:44:23;9.90;99.90
76567;DHT22;65428;53.194;6.132;2023-04-24T13:46:53;9.80;99.90
76567;DHT22;65428;53.194;6.132;2023-04-24T13:49:20;10.00;99.90
76567;DHT22;65428;53.194;6.132;2023-04-24T13:51:46;9.80;99.90
76567;DHT22;65428;53.194;6.132;2023-04-24T13:54:12;10.00;99.90
76567;DHT22;65428;53.194;6.132;2023-04-24T13:56:39;9.80;99.90
76567;DHT22;65428;53.194;6.132;2023-04-24T13:59:05;9.80;99.90
76567;DHT22;65428;53.194;6.132;2023-04-24T14:01:31;9.70;99.90
76567;DHT22;65428;53.194;6.132;2023-04-24T14:03:56;9.90;99.90
76567;DHT22;65428;53.194;6.132;2023-04-24T14:06:22;10.00;99.90
76567;DHT22;65428;53.194;6.132;2023-04-24T14:08:49;10.20;99.90
76567;DHT22;65428;53.194;6.132;2023-04-24T14:11:16;10.40;99.90
76567;DHT22;65428;53.194;6.132;2023-04-24T14:13:42;10.70;99.90
76567;DHT22;65428;53.194;6.132;2023-04-24T14:16:09;10.60;99.90
76567;DHT22;65428;53.194;6.132;2023-04-24T14:18:35;10.50;99.90
76567;DHT22;65428;53.194;6.132;2023-04-24T14:21:02;10.70;99.90
76567;DHT22;65428;53.194;6.132;2023-04-24T14:23:28;10.40;99.90
76567;DHT22;65428;53.194;6.132;2023-04-24T14:25:53;10.80;99.90
76567;DHT22;65428;53.194;6.132;2023-04-24T14:28:20;11.10;99.90
76567;DHT22;65428;53.194;6.132;2023-04-24T14:30:47;10.70;99.90
76567;DHT22;65428;53.194;6.132;2023-04-24T14:33:13;10.70;99.90
76567;DHT22;65428;53.194;6.132;2023-04-24T14:35:42;10.50;99.90
76567;DHT22;65428;53.194;6.132;2023-04-24T14:38:09;10.40;99.90
76567;DHT22;65428;53.194;6.132;2023-04-24T14:40:35;10.40;99.90
76567;DHT22;65428;53.194;6.132;2023-04-24T14:43:01;10.20;99.90
76567;DHT22;65428;53.194;6.132;2023-04-24T14:45:26;10.30;99.90
76567;DHT22;65428;53.194;6.132;2023-04-24T14:47:53;10.70;99.90
76567;DHT22;65428;53.194;6.132;2023-04-24T14:50:19;10.40;99.90
76567;DHT22;65428;53.194;6.132;2023-04-24T14:52:45;10.20;99.90
76567;DHT22;65428;53.194;6.132;2023-04-24T14:55:12;10.30;99.90
76567;DHT22;65428;53.194;6.132;2023-04-24T14:57:38;10.40;99.90
76567;DHT22;65428;53.194;6.132;2023-04-24T15:00:07;10.10;99.90
76567;DHT22;65428;53.194;6.132;2023-04-24T15:02:36;10.00;99.90
76567;DHT22;65428;53.194;6.132;2023-04-24T15:05:05;10.10;99.90
76567;DHT22;65428;53.194;6.132;2023-04-24T15:07:31;10.10;99.90
76567;DHT22;65428;53.194;6.132;2023-04-24T15:09:58;10.10;99.90
76567;DHT22;65428;53.194;6.132;2023-04-24T15:12:24;10.10;99.90
76567;DHT22;65428;53.194;6.132;2023-04-24T15:14:50;10.10;99.90
76567;DHT22;65428;53.194;6.132;2023-04-24T15:17:15;10.10;99.90
76567;DHT22;65428;53.194;6.132;2023-04-24T15:19:41;10.00;99.90
76567;DHT22;65428;53.194;6.132;2023-04-24T15:22:07;9.90;99.90
76567;DHT22;65428;53.194;6.132;2023-04-24T15:24:33;9.90;99.90
76567;DHT22;65428;53.194;6.132;2023-04-24T15:26:59;9.90;99.90
76567;DHT22;65428;53.194;6.132;2023-04-24T15:29:25;9.90;99.90
76567;DHT22;65428;53.194;6.132;2023-04-24T15:31:52;9.80;99.90
76567;DHT22;65428;53.194;6.132;2023-04-24T15:34:18;9.80;99.90
76567;DHT22;65428;53.194;6.132;2023-04-24T15:36:43;9.50;99.90
76567;DHT22;65428;53.194;6.132;2023-04-24T15:39:09;9.40;99.90
76567;DHT22;65428;53.194;6.132;2023-04-24T15:41:35;9.30;99.90